sensor_id;sensor_type;location;lat;lon;timestamp;pressure;altitude;pressure_sealevel;temperature;humidity
77311;BME280;66371;52.714;5.074;2023-03-14T20:17:56;100981.47;;;3.15;73.98
77311;BME280;66371;52.714;5.074;2023-03-14T20:20:21;100967.72;;;3.10;74.20
77311;BME280;66371;52.714;5.074;2023-03-14T20:22:47;100972.91;;;2.99;75.15
77311;BME280;66371;52.714;5.074;2023-03-14T20:25:17;100972.53;;;2.92;75.98
77311;BME280;66371;52.714;5.074;2023-03-14T20:27:47;100978.84;;;2.90;76.84
77311;BME280;66371;52.714;5.074;2023-03-14T20:30:15;100974.13;;;2.82;77.57
77311;BME280;66371;52.714;5.074;2023-03-14T20:32:42;100978.69;;;2.80;77.34
77311;BME280;66371;52.714;5.074;2023-03-14T20:35:10;100975.28;;;2.78;77.76
77311;BME280;66371;52.714;5.074;2023-03-14T20:37:37;100985.97;;;2.77;77.75
77311;BME280;66371;52.714;5.074;2023-03-14T20:40:03;100985.00;;;2.78;77.73
77311;BME280;66371;52.714;5.074;2023-03-14T20:42:32;100992.16;;;2.76;77.79
77311;BME280;66371;52.714;5.074;2023-03-14T20:44:58;100996.41;;;2.78;77.59
77311;BME280;66371;52.714;5.074;2023-03-14T20:47:24;101001.69;;;2.78;78.03
77311;BME280;66371;52.714;5.074;2023-03-14T20:49:49;101008.66;;;2.79;78.86
77311;BME280;66371;52.714;5.074;2023-03-14T20:52:14;101032.63;;;2.76;80.12
77311;BME280;66371;52.714;5.074;2023-03-14T20:54:40;101024.06;;;2.85;79.06
77311;BME280;66371;52.714;5.074;2023-03-14T20:57:06;101015.22;;;2.74;79.92
77311;BME280;66371;52.714;5.074;2023-03-14T20:59:31;101024.50;;;2.79;79.66
77311;BME280;66371;52.714;5.074;2023-03-14T21:01:57;101031.59;;;2.66;80.57
77311;BME280;66371;52.714;5.074;2023-03-14T21:04:23;101039.28;;;2.57;81.19
77311;BME280;66371;52.714;5.074;2023-03-14T21:06:49;101042.03;;;2.55;82.18
77311;BME280;66371;52.714;5.074;2023-03-14T21:09:20;101041.81;;;2.58;82.26
77311;BME280;66371;52.714;5.074;2023-03-14T21:11:46;101047.31;;;2.55;82.32
77311;BME280;66371;52.714;5.074;2023-03-14T21:14:11;101053.63;;;2.53;82.72
77311;BME280;66371;52.714;5.074;2023-03-14T21:16:37;101061.78;;;2.50;83.18
77311;BME280;66371;52.714;5.074;2023-03-14T21:19:02;101065.66;;;2.44;83.66
77311;BME280;66371;52.714;5.074;2023-03-14T21:21:27;101044.53;;;2.44;83.98
77311;BME280;66371;52.714;5.074;2023-03-14T21:23:53;101037.16;;;2.49;83.85
77311;BME280;66371;52.714;5.074;2023-03-14T21:26:19;101046.03;;;2.61;83.18
77311;BME280;66371;52.714;5.074;2023-03-14T21:28:44;101048.13;;;2.68;83.15
77311;BME280;66371;52.714;5.074;2023-03-14T21:31:10;101042.84;;;2.68;83.57
77311;BME280;66371;52.714;5.074;2023-03-14T21:33:36;101043.81;;;2.67;83.94
77311;BME280;66371;52.714;5.074;2023-03-14T21:36:02;101034.44;;;2.63;84.25
77311;BME280;66371;52.714;5.074;2023-03-14T21:38:28;101042.97;;;2.67;84.70
77311;BME280;66371;52.714;5.074;2023-03-14T21:40:55;101032.53;;;2.78;84.16
77311;BME280;66371;52.714;5.074;2023-03-14T21:43:21;101033.38;;;2.78;84.11
77311;BME280;66371;52.714;5.074;2023-03-14T21:45:47;101039.28;;;2.69;84.37
77311;BME280;66371;52.714;5.074;2023-03-14T21:48:13;101052.69;;;2.66;84.15
77311;BME280;66371;52.714;5.074;2023-03-14T21:50:38;101054.03;;;2.59;84.34
77311;BME280;66371;52.714;5.074;2023-03-14T21:53:03;101054.25;;;2.56;84.83
77311;BME280;66371;52.714;5.074;2023-03-14T21:55:29;101071.81;;;2.57;85.05
77311;BME280;66371;52.714;5.074;2023-03-14T21:57:55;101065.16;;;2.64;85.08
77311;BME280;66371;52.714;5.074;2023-03-14T22:00:22;101058.47;;;2.71;85.26
77311;BME280;66371;52.714;5.074;2023-03-14T22:02:49;101072.88;;;2.80;85.13
77311;BME280;66371;52.714;5.074;2023-03-14T22:05:19;101068.41;;;2.93;83.97
77311;BME280;66371;52.714;5.074;2023-03-14T22:07:46;101083.31;;;3.06;83.30
77311;BME280;66371;52.714;5.074;2023-03-14T22:10:12;101102.97;;;3.02;83.53
77311;BME280;66371;52.714;5.074;2023-03-14T22:12:39;101099.25;;;2.67;83.86
77311;BME280;66371;52.714;5.074;2023-03-14T22:15:05;101105.63;;;2.38;84.56
77311;BME280;66371;52.714;5.074;2023-03-14T22:17:30;101109.69;;;2.17;86.25
77311;BME280;66371;52.714;5.074;2023-03-14T22:19:56;101113.47;;;2.13;86.87
77311;BME280;66371;52.714;5.074;2023-03-14T22:22:21;101120.25;;;2.17;86.97
77311;BME280;66371;52.714;5.074;2023-03-14T22:24:47;101115.91;;;2.16;87.86
77311;BME280;66371;52.714;5.074;2023-03-14T22:27:13;101113.91;;;2.20;87.94
77311;BME280;66371;52.714;5.074;2023-03-14T22:29:39;101118.25;;;2.21;88.81
77311;BME280;66371;52.714;5.074;2023-03-14T22:32:05;101116.75;;;2.17;89.48
77311;BME280;66371;52.714;5.074;2023-03-14T22:34:32;101115.16;;;2.14;90.13
77311;BME280;66371;52.714;5.074;2023-03-14T22:36:59;101114.97;;;2.17;90.48
77311;BME280;66371;52.714;5.074;2023-03-14T22:39:25;101122.56;;;2.22;90.64
77311;BME280;66371;52.714;5.074;2023-03-14T22:41:52;101126.78;;;2.24;90.23
77311;BME280;66371;52.714;5.074;2023-03-14T22:44:19;101117.19;;;2.23;90.60
77311;BME280;66371;52.714;5.074;2023-03-14T22:46:44;101125.13;;;2.23;90.48
77311;BME280;66371;52.714;5.074;2023-03-14T22:49:10;101114.56;;;2.23;90.77
77311;BME280;66371;52.714;5.074;2023-03-14T22:51:35;101132.41;;;2.32;90.78
77311;BME280;66371;52.714;5.074;2023-03-14T22:54:01;101123.91;;;2.41;89.66
77311;BME280;66371;52.714;5.074;2023-03-14T22:56:26;101130.28;;;2.51;89.02
77311;BME280;66371;52.714;5.074;2023-03-14T22:58:51;101124.34;;;2.48;88.50
77311;BME280;66371;52.714;5.074;2023-03-14T23:01:17;101114.09;;;2.43;88.31
77311;BME280;66371;52.714;5.074;2023-03-14T23:03:42;101113.94;;;2.32;87.32
77311;BME280;66371;52.714;5.074;2023-03-14T23:06:10;101117.84;;;2.27;87.23
77311;BME280;66371;52.714;5.074;2023-03-14T23:08:36;101125.31;;;2.20;86.98
77311;BME280;66371;52.714;5.074;2023-03-14T23:11:04;101133.63;;;2.14;86.91
77311;BME280;66371;52.714;5.074;2023-03-14T23:13:30;101138.53;;;2.06;86.91
77311;BME280;66371;52.714;5.074;2023-03-14T23:15:56;101122.66;;;1.94;87.00
77311;BME280;66371;52.714;5.074;2023-03-14T23:18:21;101136.03;;;1.91;87.55
77311;BME280;66371;52.714;5.074;2023-03-14T23:21:05;101148.78;;;1.84;88.17
77311;BME280;66371;52.714;5.074;2023-03-14T23:23:31;101141.28;;;1.78;88.48
77311;BME280;66371;52.714;5.074;2023-03-14T23:26:00;101139.47;;;1.78;89.25
77311;BME280;66371;52.714;5.074;2023-03-14T23:28:25;101148.50;;;1.74;89.29
77311;BME280;66371;52.714;5.074;2023-03-14T23:30:54;101149.56;;;1.72;89.51
77311;BME280;66371;52.714;5.074;2023-03-14T23:33:20;101144.50;;;1.69;89.52
77311;BME280;66371;52.714;5.074;2023-03-14T23:35:46;101148.91;;;1.68;89.73
77311;BME280;66371;52.714;5.074;2023-03-14T23:38:11;101151.53;;;1.68;89.86
77311;BME280;66371;52.714;5.074;2023-03-14T23:40:37;101149.75;;;1.69;90.11
77311;BME280;66371;52.714;5.074;2023-03-14T23:43:02;101158.41;;;1.71;90.03
77311;BME280;66371;52.714;5.074;2023-03-14T23:45:28;101161.88;;;1.71;90.02
77311;BME280;66371;52.714;5.074;2023-03-14T23:47:53;101155.03;;;1.69;90.61
77311;BME280;66371;52.714;5.074;2023-03-14T23:50:19;101161.88;;;1.71;90.30
77311;BME280;66371;52.714;5.074;2023-03-14T23:52:44;101166.50;;;1.68;90.59
77311;BME280;66371;52.714;5.074;2023-03-14T23:55:09;101168.22;;;1.69;90.64
77311;BME280;66371;52.714;5.074;2023-03-14T23:57:35;101170.84;;;1.69;90.78
